Time;durP1;ratioP1;P1;durP2;ratioP2;P2;SDS_P1;SDS_P2;PMS_P1;PMS_P2;Temp;Humidity;BMP_temperature;BMP_pressure;BME280_temperature;BME280_humidity;BME280_pressure;Samples;Min_cycle;Max_cycle;Signal;HPM_P1;HPM_P2
2022/10/25 00:02:15;;;;;;;11.20;4.60;;;;;;;12.36;nan;-24162.16;5114195;28;20271;-77
2022/10/25 00:04:41;;;;;;;11.75;4.75;;;;;;;12.01;nan;-24152.44;5113999;28;20536;-79
2022/10/25 00:07:06;;;;;;;10.05;5.00;;;;;;;11.96;nan;-24151.03;5114029;28;20208;-78
2022/10/25 00:09:31;;;;;;;9.52;4.80;;;;;;;12.27;nan;-24159.63;5112865;28;20183;-75
2022/10/25 00:11:57;;;;;;;9.35;4.95;;;;;;;12.11;nan;-24155.13;5113587;28;20199;-76
2022/10/25 00:14:22;;;;;;;8.15;5.18;;;;;;;12.14;nan;-24156.09;5111857;28;20181;-78
2022/10/25 00:16:48;;;;;;;10.35;5.10;;;;;;;12.06;nan;-24153.69;5109816;28;20173;-77
2022/10/25 00:19:13;;;;;;;8.20;5.15;;;;;;;11.99;nan;-24151.72;5091586;28;20165;-79
2022/10/25 00:21:39;;;;;;;7.03;4.40;;;;;;;12.05;nan;-24153.41;5093097;28;20177;-76
2022/10/25 00:24:05;;;;;;;8.82;5.15;;;;;;;11.85;nan;-24148.06;5091318;28;20169;-79
2022/10/25 00:26:31;;;;;;;7.60;4.15;;;;;;;11.82;nan;-24147.22;5092250;28;20260;-77
2022/10/25 00:28:56;;;;;;;8.88;4.82;;;;;;;11.93;nan;-24150.19;5092293;28;20150;-77
2022/10/25 00:31:23;;;;;;;9.02;4.95;;;;;;;11.70;nan;-24143.84;5092801;28;20211;-79
2022/10/25 00:33:48;;;;;;;8.90;4.45;;;;;;;11.71;nan;-24143.97;5092544;28;20176;-79
2022/10/25 00:36:22;;;;;;;11.27;5.65;;;;;;;11.71;nan;-24143.97;5091214;28;20221;-78
2022/10/25 00:38:48;;;;;;;9.27;4.65;;;;;;;11.78;nan;-24145.97;5092322;28;20157;-79
2022/10/25 00:41:17;;;;;;;8.05;4.53;;;;;;;11.65;nan;-24142.44;5090798;28;20168;-79
2022/10/25 00:43:44;;;;;;;9.57;5.63;;;;;;;11.89;nan;-24149.19;5091106;28;20246;-79
2022/10/25 00:46:23;;;;;;;10.88;4.95;;;;;;;11.85;nan;-24147.94;5092160;28;20250;-77
2022/10/25 00:49:04;;;;;;;9.80;5.43;;;;;;;11.65;nan;-24142.44;5089941;28;20187;-76
2022/10/25 00:51:40;;;;;;;12.70;5.85;;;;;;;11.64;nan;-24142.16;5092641;28;20173;-78
2022/10/25 00:54:07;;;;;;;8.05;4.60;;;;;;;11.69;nan;-24143.56;5093029;28;20180;-77
2022/10/25 00:56:37;;;;;;;8.27;4.75;;;;;;;11.55;nan;-24139.63;5092031;28;20176;-78
2022/10/25 00:59:07;;;;;;;7.22;4.45;;;;;;;11.40;nan;-24135.53;5092907;28;20178;-77
2022/10/25 01:01:33;;;;;;;9.30;4.13;;;;;;;11.50;nan;-24138.22;5091243;28;20208;-79
2022/10/25 01:04:03;;;;;;;7.32;4.75;;;;;;;11.28;nan;-24132.16;5093387;28;20610;-79
2022/10/25 01:06:42;;;;;;;17.73;5.43;;;;;;;11.67;nan;-24142.84;5095872;28;20363;-77
2022/10/25 01:09:09;;;;;;;9.93;4.65;;;;;;;11.35;nan;-24133.97;5096349;28;20647;-78
2022/10/25 01:11:36;;;;;;;9.73;4.63;;;;;;;11.50;nan;-24138.22;5095713;28;20169;-76
2022/10/25 01:14:03;;;;;;;8.70;4.90;;;;;;;11.44;nan;-24136.66;5094235;28;20184;-76
2022/10/25 01:17:00;;;;;;;7.80;4.72;;;;;;;11.63;nan;-24141.72;5092491;28;20660;-77
2022/10/25 01:19:38;;;;;;;8.00;4.57;;;;;;;11.21;nan;-24130.03;5091295;28;20272;-75
2022/10/25 01:22:28;;;;;;;6.55;3.97;;;;;;;11.50;nan;-24138.34;5089776;28;20178;-77
2022/10/25 01:25:09;;;;;;;9.32;4.18;;;;;;;11.42;nan;-24136.09;5090499;28;20237;-76
2022/10/25 01:27:51;;;;;;;6.43;4.78;;;;;;;11.25;nan;-24131.31;5079088;28;20297;-78
2022/10/25 01:31:06;;;;;;;7.40;4.05;;;;;;;11.45;nan;-24136.94;5070533;28;20177;-76
2022/10/25 01:33:41;;;;;;;9.70;4.60;;;;;;;11.03;nan;-24125.25;5069352;28;20194;-77
2022/10/25 01:36:30;;;;;;;8.43;4.97;;;;;;;11.43;nan;-24136.38;5087530;28;20181;-79
2022/10/25 01:39:17;;;;;;;10.55;5.22;;;;;;;11.39;nan;-24135.09;5040213;28;20209;-78
2022/10/25 01:41:59;;;;;;;11.68;4.93;;;;;;;11.34;nan;-24133.84;5092377;28;20169;-78
2022/10/25 01:44:54;;;;;;;6.90;4.55;;;;;;;11.32;nan;-24133.28;5075247;28;20186;-79
2022/10/25 01:47:25;;;;;;;11.25;5.50;;;;;;;10.94;nan;-24122.69;5070472;28;20227;-79
2022/10/25 01:50:28;;;;;;;13.57;4.60;;;;;;;11.24;nan;-24130.88;5070719;28;20559;-76
2022/10/25 01:52:53;;;;;;;7.43;4.40;;;;;;;11.18;nan;-24129.19;5051873;28;20539;-75
2022/10/25 01:55:24;;;;;;;7.90;4.47;;;;;;;11.02;nan;-24124.81;5073848;28;20189;-76
2022/10/25 01:58:04;;;;;;;5.90;3.67;;;;;;;11.15;nan;-24128.34;5072046;28;20193;-76
2022/10/25 02:00:42;;;;;;;8.05;4.25;;;;;;;11.06;nan;-24126.09;5072041;28;20245;-79
2022/10/25 02:03:26;;;;;;;6.43;4.30;;;;;;;10.80;nan;-24118.63;5072157;28;20166;-79
2022/10/25 02:06:21;;;;;;;8.52;4.85;;;;;;;11.16;nan;-24128.63;5071352;28;20189;-80
2022/10/25 02:08:55;;;;;;;11.10;4.85;;;;;;;10.94;nan;-24122.56;5071854;28;20193;-76
2022/10/25 02:11:30;;;;;;;5.80;3.53;;;;;;;11.18;nan;-24129.19;5071904;28;20587;-78
2022/10/25 02:14:20;;;;;;;7.78;4.38;;;;;;;11.27;nan;-24131.72;5071636;28;20648;-77
2022/10/25 02:16:52;;;;;;;7.40;3.72;;;;;;;11.05;nan;-24125.66;5070003;28;20205;-81
2022/10/25 02:19:22;;;;;;;15.10;4.10;;;;;;;11.11;nan;-24127.34;5081646;28;20181;-79
2022/10/25 02:21:50;;;;;;;7.30;4.53;;;;;;;11.22;nan;-24130.31;5086979;28;20190;-79
2022/10/25 02:24:18;;;;;;;4.43;3.58;;;;;;;11.31;nan;-24133.00;5085480;28;20178;-78
2022/10/25 02:26:46;;;;;;;9.20;4.10;;;;;;;11.19;nan;-24129.59;5073719;28;20232;-77
2022/10/25 02:29:13;;;;;;;8.88;4.35;;;;;;;11.02;nan;-24124.97;5089946;28;20642;-76
2022/10/25 02:31:39;;;;;;;8.97;3.87;;;;;;;11.30;nan;-24132.56;5084147;28;20260;-77
2022/10/25 02:34:05;;;;;;;11.07;3.45;;;;;;;11.26;nan;-24131.59;5074220;28;20260;-79
2022/10/25 02:36:30;;;;;;;5.65;3.88;;;;;;;11.19;nan;-24129.47;5073897;28;20269;-79
2022/10/25 02:38:57;;;;;;;10.98;3.97;;;;;;;10.94;nan;-24122.69;5075368;28;20186;-77
2022/10/25 02:41:22;;;;;;;12.00;4.18;;;;;;;10.87;nan;-24120.59;5075651;28;20182;-78
2022/10/25 02:43:48;;;;;;;7.25;4.50;;;;;;;11.03;nan;-24125.09;5074380;28;20265;-80
2022/10/25 02:46:17;;;;;;;17.50;4.53;;;;;;;11.07;nan;-24126.22;5074384;28;20209;-78
2022/10/25 02:48:43;;;;;;;5.65;3.65;;;;;;;11.20;nan;-24129.88;5074427;28;20192;-76
2022/10/25 02:51:10;;;;;;;10.52;4.22;;;;;;;10.82;nan;-24119.31;5074460;28;20178;-77
2022/10/25 02:53:35;;;;;;;8.18;4.45;;;;;;;10.74;nan;-24117.06;5073197;28;20614;-76
2022/10/25 02:56:03;;;;;;;9.18;4.28;;;;;;;10.82;nan;-24119.19;5072589;28;20192;-76
2022/10/25 02:58:31;;;;;;;8.18;4.25;;;;;;;10.06;nan;-24098.00;5072913;28;20308;-79
2022/10/25 03:00:58;;;;;;;8.40;4.43;;;;;;;11.02;nan;-24124.81;5074363;28;20174;-77
2022/10/25 03:03:24;;;;;;;6.90;4.03;;;;;;;10.71;nan;-24116.06;5083039;28;20200;-79
2022/10/25 03:05:50;;;;;;;9.60;4.10;;;;;;;10.69;nan;-24115.50;5081315;28;20210;-76
2022/10/25 03:08:15;;;;;;;9.55;4.22;;;;;;;10.69;nan;-24115.50;5088556;28;20189;-78
2022/10/25 03:10:40;;;;;;;8.25;4.20;;;;;;;10.96;nan;-24123.13;5094465;28;20640;-76
2022/10/25 03:13:06;;;;;;;7.07;3.97;;;;;;;10.94;nan;-24122.56;5072950;28;20213;-79
2022/10/25 03:15:31;;;;;;;6.18;3.83;;;;;;;10.45;nan;-24109.03;5072764;28;20534;-78
2022/10/25 03:17:56;;;;;;;5.47;3.60;;;;;;;10.76;nan;-24117.47;5072661;28;20264;-79
2022/10/25 03:20:22;;;;;;;9.23;4.47;;;;;;;10.44;nan;-24108.75;5073959;28;20182;-79
2022/10/25 03:22:47;;;;;;;8.93;3.83;;;;;;;10.41;nan;-24107.88;5077826;28;20211;-75
2022/10/25 03:25:13;;;;;;;8.57;3.93;;;;;;;10.74;nan;-24116.91;5090227;28;20225;-79
2022/10/25 03:27:38;;;;;;;8.27;4.38;;;;;;;10.63;nan;-24114.09;5091872;28;20181;-78
2022/10/25 03:30:04;;;;;;;8.57;3.67;;;;;;;10.61;nan;-24113.41;5091669;28;20637;-80
2022/10/25 03:32:29;;;;;;;12.70;4.50;;;;;;;10.74;nan;-24116.91;5091725;28;20239;-78
2022/10/25 03:34:55;;;;;;;5.75;3.90;;;;;;;10.74;nan;-24117.06;5092271;28;20260;-75
2022/10/25 03:37:20;;;;;;;14.70;3.80;;;;;;;10.76;nan;-24117.47;5090669;28;20276;-78
2022/10/25 03:39:46;;;;;;;7.28;4.07;;;;;;;10.63;nan;-24114.09;5093343;28;20184;-77
2022/10/25 03:42:11;;;;;;;5.75;3.67;;;;;;;10.69;nan;-24115.50;5091041;28;20185;-76
2022/10/25 03:44:37;;;;;;;7.28;3.90;;;;;;;10.76;nan;-24117.47;5090305;28;20196;-78
2022/10/25 03:47:02;;;;;;;8.52;4.60;;;;;;;10.70;nan;-24115.78;5091629;28;20240;-77
2022/10/25 03:49:28;;;;;;;6.53;4.00;;;;;;;10.79;nan;-24118.34;5085435;28;20613;-78
2022/10/25 03:51:53;;;;;;;6.38;3.67;;;;;;;10.57;nan;-24112.41;5092706;28;20192;-79
2022/10/25 03:54:19;;;;;;;7.53;4.32;;;;;;;10.68;nan;-24115.22;5091686;28;20212;-79
2022/10/25 03:56:44;;;;;;;7.68;4.18;;;;;;;11.00;nan;-24124.25;5091922;28;20720;-79
2022/10/25 03:59:09;;;;;;;11.00;5.20;;;;;;;10.69;nan;-24115.50;5090504;28;20185;-78
2022/10/25 04:01:35;;;;;;;7.80;3.85;;;;;;;10.78;nan;-24118.19;5092024;28;20284;-77
2022/10/25 04:04:00;;;;;;;7.53;4.13;;;;;;;10.69;nan;-24115.50;5090977;28;20185;-80
2022/10/25 04:06:26;;;;;;;6.85;4.10;;;;;;;10.61;nan;-24113.53;5091648;28;20300;-79
2022/10/25 04:08:51;;;;;;;7.75;4.35;;;;;;;10.66;nan;-24114.81;5091509;28;20711;-79
2022/10/25 04:11:17;;;;;;;7.72;4.88;;;;;;;10.69;nan;-24115.50;5091565;28;20184;-78
2022/10/25 04:13:42;;;;;;;7.50;4.07;;;;;;;10.47;nan;-24109.44;5089055;28;20276;-77
2022/10/25 04:16:08;;;;;;;9.33;4.37;;;;;;;10.59;nan;-24112.97;5084546;28;20244;-80
2022/10/25 04:18:34;;;;;;;9.87;3.97;;;;;;;10.51;nan;-24110.72;5087657;28;20642;-77
2022/10/25 04:20:59;;;;;;;9.53;4.30;;;;;;;10.46;nan;-24109.16;5085327;28;20217;-77
2022/10/25 04:23:24;;;;;;;12.60;4.30;;;;;;;10.03;nan;-24097.16;5085267;28;20231;-80
2022/10/25 04:25:50;;;;;;;7.05;3.78;;;;;;;10.39;nan;-24107.19;5091363;28;20633;-78
2022/10/25 04:28:15;;;;;;;9.38;4.50;;;;;;;10.38;nan;-24107.03;5084902;28;20333;-76
2022/10/25 04:30:41;;;;;;;9.23;4.50;;;;;;;10.14;nan;-24100.25;5089787;28;20177;-79
2022/10/25 04:33:07;;;;;;;13.07;3.77;;;;;;;9.96;nan;-24095.31;5090837;28;20193;-80
2022/10/25 04:35:32;;;;;;;7.97;4.20;;;;;;;9.92;nan;-24094.19;5083743;28;20182;-78
2022/10/25 04:37:58;;;;;;;8.63;4.47;;;;;;;9.91;nan;-24093.78;5085733;28;20712;-81
2022/10/25 04:40:24;;;;;;;12.00;4.70;;;;;;;10.19;nan;-24101.81;5087959;28;20186;-77
2022/10/25 04:42:49;;;;;;;7.73;4.53;;;;;;;10.08;nan;-24098.56;5087150;28;20181;-78
2022/10/25 04:45:14;;;;;;;6.73;4.27;;;;;;;10.27;nan;-24103.94;5090813;28;20201;-76
2022/10/25 04:47:40;;;;;;;7.27;3.77;;;;;;;10.13;nan;-24099.97;5091690;28;20196;-79
2022/10/25 04:50:06;;;;;;;4.97;3.20;;;;;;;10.17;nan;-24101.13;5091200;28;20204;-79
2022/10/25 04:52:32;;;;;;;7.50;3.87;;;;;;;9.97;nan;-24095.59;5091627;28;20609;-81
2022/10/25 04:54:57;;;;;;;7.17;3.90;;;;;;;9.81;nan;-24090.94;5091582;28;20280;-79
2022/10/25 04:57:24;;;;;;;9.93;4.27;;;;;;;9.66;nan;-24086.84;5091519;28;20618;-78
2022/10/25 04:59:50;;;;;;;6.18;4.18;;;;;;;9.99;nan;-24096.16;5091750;28;20193;-78
2022/10/25 05:02:15;;;;;;;7.57;4.55;;;;;;;9.94;nan;-24094.63;5089269;28;20238;-77
2022/10/25 05:04:41;;;;;;;7.53;4.23;;;;;;;9.86;nan;-24092.34;5089246;28;20193;-76
2022/10/25 05:07:06;;;;;;;8.43;4.03;;;;;;;9.66;nan;-24086.84;5090403;28;20212;-78
2022/10/25 05:09:32;;;;;;;12.43;4.30;;;;;;;10.17;nan;-24101.25;5090063;28;20351;-77
2022/10/25 05:11:57;;;;;;;10.03;4.57;;;;;;;10.23;nan;-24102.66;5089151;28;20204;-77
2022/10/25 05:14:23;;;;;;;6.90;4.13;;;;;;;10.41;nan;-24107.88;5095162;28;20651;-77
2022/10/25 05:16:48;;;;;;;11.30;4.07;;;;;;;10.40;nan;-24107.47;5089654;28;20569;-77
2022/10/25 05:19:13;;;;;;;10.30;4.87;;;;;;;10.59;nan;-24112.81;5089885;28;20182;-78
2022/10/25 05:21:39;;;;;;;19.87;9.30;;;;;;;10.68;nan;-24115.38;5086732;28;20263;-78
2022/10/25 05:24:05;;;;;;;21.08;12.20;;;;;;;10.62;nan;-24113.69;5085488;28;20177;-77
2022/10/25 05:26:30;;;;;;;20.17;11.70;;;;;;;10.50;nan;-24110.44;5090474;28;20689;-78
2022/10/25 05:28:57;;;;;;;22.03;10.53;;;;;;;10.75;nan;-24117.34;5084722;28;20190;-77
2022/10/25 05:31:28;;;;;;;19.63;9.33;;;;;;;10.01;nan;-24096.59;5080573;28;20217;-77
2022/10/25 05:33:55;;;;;;;19.92;7.82;;;;;;;10.58;nan;-24112.56;5082862;28;20188;-78
2022/10/25 05:36:21;;;;;;;10.30;5.72;;;;;;;10.77;nan;-24117.91;5083281;28;20182;-78
2022/10/25 05:38:47;;;;;;;11.45;5.03;;;;;;;11.08;nan;-24126.66;5068485;28;20189;-80
2022/10/25 05:41:14;;;;;;;8.90;4.88;;;;;;;10.74;nan;-24117.06;5071434;28;20162;-77
2022/10/25 05:43:40;;;;;;;8.38;5.25;;;;;;;10.83;nan;-24119.47;5082322;28;20200;-77
2022/10/25 05:46:11;;;;;;;10.00;5.25;;;;;;;10.94;nan;-24122.69;5091718;28;20201;-77
2022/10/25 05:48:37;;;;;;;11.40;4.45;;;;;;;11.49;nan;-24138.06;5083013;28;20246;-78
2022/10/25 05:51:10;;;;;;;12.02;4.50;;;;;;;11.53;nan;-24139.19;5088552;28;20185;-78
2022/10/25 05:53:35;;;;;;;12.82;6.53;;;;;;;11.43;nan;-24136.38;5073564;28;20233;-79
2022/10/25 05:56:01;;;;;;;20.13;7.82;;;;;;;11.66;nan;-24142.56;5090515;28;20260;-79
2022/10/25 05:58:26;;;;;;;12.85;6.90;;;;;;;11.73;nan;-24144.56;5081698;28;20185;-76
2022/10/25 06:00:52;;;;;;;15.35;7.10;;;;;;;11.79;nan;-24146.25;5070128;28;20592;-77
2022/10/25 06:03:17;;;;;;;12.15;5.95;;;;;;;11.96;nan;-24151.03;5079857;28;20177;-76
2022/10/25 06:05:43;;;;;;;11.50;4.93;;;;;;;12.13;nan;-24155.81;5091952;28;20200;-77
2022/10/25 06:08:08;;;;;;;12.23;5.18;;;;;;;12.20;nan;-24157.78;5079076;28;20189;-79
2022/10/25 06:10:33;;;;;;;11.32;5.18;;;;;;;12.38;nan;-24162.84;5096305;28;20184;-80
2022/10/25 06:13:00;;;;;;;8.18;4.50;;;;;;;12.48;nan;-24165.53;5096714;28;20197;-78
2022/10/25 06:15:25;;;;;;;12.07;5.20;;;;;;;12.46;nan;-24164.97;5094913;28;20208;-79
2022/10/25 06:17:51;;;;;;;9.93;5.03;;;;;;;12.87;nan;-24176.34;5094119;28;20668;-77
2022/10/25 06:20:16;;;;;;;9.30;4.30;;;;;;;12.97;nan;-24179.16;5094551;28;20250;-79
2022/10/25 06:22:42;;;;;;;8.85;4.05;;;;;;;12.97;nan;-24179.16;5093915;28;20185;-78
2022/10/25 06:25:08;;;;;;;5.93;4.13;;;;;;;13.18;nan;-24185.06;5093369;28;20224;-77
2022/10/25 06:27:33;;;;;;;7.80;3.92;;;;;;;13.18;nan;-24185.06;5094082;28;20640;-78
2022/10/25 06:29:58;;;;;;;12.90;4.40;;;;;;;13.43;nan;-24191.94;5089964;28;20617;-78
2022/10/25 06:32:24;;;;;;;11.80;4.28;;;;;;;13.54;nan;-24194.91;5091011;28;20177;-80
2022/10/25 06:34:49;;;;;;;11.70;4.57;;;;;;;13.69;nan;-24199.13;5090604;28;20192;-77
2022/10/25 06:37:15;;;;;;;10.73;4.70;;;;;;;13.81;nan;-24202.50;5084665;28;20285;-80
2022/10/25 06:39:40;;;;;;;5.28;4.00;;;;;;;14.00;nan;-24207.81;5086278;28;20218;-78
2022/10/25 06:42:05;;;;;;;9.95;5.18;;;;;;;14.01;nan;-24207.97;5087054;28;20212;-77
2022/10/25 06:44:31;;;;;;;14.23;7.60;;;;;;;14.12;nan;-24211.19;5083141;28;20193;-82
2022/10/25 06:46:59;;;;;;;13.50;5.93;;;;;;;13.94;nan;-24206.13;5081856;28;20343;-80
2022/10/25 06:49:24;;;;;;;9.25;5.65;;;;;;;14.00;nan;-24207.81;5085229;28;20730;-77
2022/10/25 06:51:50;;;;;;;9.70;4.97;;;;;;;14.46;nan;-24220.59;5085402;28;20237;-79
2022/10/25 06:54:15;;;;;;;7.43;3.83;;;;;;;14.32;nan;-24216.66;5086081;28;20269;-81
2022/10/25 06:56:41;;;;;;;6.28;4.75;;;;;;;14.81;nan;-24230.13;5087245;28;20187;-78
2022/10/25 06:59:07;;;;;;;5.38;3.55;;;;;;;15.06;nan;-24237.00;5084209;28;20418;-78
2022/10/25 07:01:32;;;;;;;9.70;3.83;;;;;;;15.07;nan;-24237.41;5082966;28;20193;-78
2022/10/25 07:03:58;;;;;;;7.28;3.60;;;;;;;15.26;nan;-24242.72;5086289;28;20636;-79
2022/10/25 07:06:28;;;;;;;14.35;4.07;;;;;;;15.07;nan;-24237.41;5086336;28;20299;-80
2022/10/25 07:08:57;;;;;;;11.38;3.72;;;;;;;15.42;nan;-24247.06;5085076;28;20337;-78
2022/10/25 07:11:24;;;;;;;11.02;3.72;;;;;;;15.47;nan;-24248.47;5086967;28;20193;-78
2022/10/25 07:13:50;;;;;;;5.75;3.38;;;;;;;15.46;nan;-24248.19;5086238;28;20600;-77
2022/10/25 07:16:19;;;;;;;4.47;3.17;;;;;;;15.56;nan;-24251.00;5085734;28;20213;-77
2022/10/25 07:18:45;;;;;;;7.65;3.60;;;;;;;15.79;nan;-24257.44;5084982;28;21102;-78
2022/10/25 07:21:13;;;;;;;6.90;3.33;;;;;;;16.17;nan;-24267.78;5086284;28;20201;-79
2022/10/25 07:23:42;;;;;;;9.65;3.42;;;;;;;16.25;nan;-24270.03;5086534;28;20539;-78
2022/10/25 07:26:15;;;;;;;12.80;3.95;;;;;;;16.34;nan;-24272.53;5084256;28;20283;-79
2022/10/25 07:28:43;;;;;;;11.65;3.67;;;;;;;16.66;nan;-24281.50;5083730;28;20187;-80
2022/10/25 07:31:18;;;;;;;5.55;3.55;;;;;;;16.91;nan;-24288.19;5085115;28;20649;-80
2022/10/25 07:33:43;;;;;;;5.95;3.70;;;;;;;17.15;nan;-24294.91;5100883;28;20683;-77
2022/10/25 07:36:09;;;;;;;7.55;3.22;;;;;;;17.58;nan;-24306.91;5085324;28;20185;-77
2022/10/25 07:38:34;;;;;;;6.80;3.10;;;;;;;17.70;nan;-24309.97;5086980;28;20207;-77
2022/10/25 07:41:00;;;;;;;5.72;3.13;;;;;;;17.78;nan;-24312.34;5084703;28;20667;-77
2022/10/25 07:43:27;;;;;;;7.03;3.28;;;;;;;17.81;nan;-24313.19;5084683;28;20187;-77
2022/10/25 07:45:53;;;;;;;6.82;3.33;;;;;;;18.12;nan;-24321.69;5084139;28;20288;-79
2022/10/25 07:48:18;;;;;;;6.70;3.33;;;;;;;17.70;nan;-24309.97;5084572;28;20181;-81
2022/10/25 07:50:44;;;;;;;5.72;3.15;;;;;;;17.85;nan;-24314.16;5085286;28;20268;-78
2022/10/25 07:53:09;;;;;;;6.65;2.97;;;;;;;18.43;nan;-24330.19;5084264;28;20671;-77
2022/10/25 07:55:35;;;;;;;6.40;3.65;;;;;;;18.15;nan;-24322.53;5085155;28;20223;-79
2022/10/25 07:58:02;;;;;;;7.10;3.42;;;;;;;18.22;nan;-24324.34;5083681;28;20565;-77
2022/10/25 08:00:28;;;;;;;9.85;4.00;;;;;;;18.11;nan;-24321.41;5084403;28;20181;-78
2022/10/25 08:02:53;;;;;;;6.45;3.10;;;;;;;17.56;nan;-24306.34;5084841;28;20264;-78
2022/10/25 08:05:18;;;;;;;8.10;4.22;;;;;;;17.70;nan;-24310.13;5086758;28;20189;-77
2022/10/25 08:07:44;;;;;;;8.77;3.33;;;;;;;17.71;nan;-24310.25;5086258;28;20192;-79
2022/10/25 08:10:09;;;;;;;9.73;3.47;;;;;;;17.52;nan;-24305.22;5084739;28;20667;-79
2022/10/25 08:12:35;;;;;;;8.20;3.30;;;;;;;17.93;nan;-24316.53;5085574;28;20184;-78
2022/10/25 08:15:00;;;;;;;8.02;3.20;;;;;;;18.13;nan;-24321.97;5085274;28;20758;-79
2022/10/25 08:17:26;;;;;;;8.13;3.40;;;;;;;18.44;nan;-24330.59;5085571;28;20177;-77
2022/10/25 08:19:51;;;;;;;10.95;3.25;;;;;;;18.55;nan;-24333.53;5084275;28;20223;-78
2022/10/25 08:22:17;;;;;;;7.50;3.05;;;;;;;18.63;nan;-24335.75;5085423;28;20300;-77
2022/10/25 08:24:42;;;;;;;8.50;2.72;;;;;;;19.05;nan;-24347.31;5086974;28;20710;-77
2022/10/25 08:27:07;;;;;;;4.95;2.92;;;;;;;18.53;nan;-24333.13;5083313;28;20228;-76
2022/10/25 08:29:33;;;;;;;5.88;2.95;;;;;;;18.35;nan;-24328.09;5083651;28;20208;-80
2022/10/25 08:31:59;;;;;;;7.75;3.10;;;;;;;18.87;nan;-24342.44;5082478;28;20317;-79
2022/10/25 08:34:24;;;;;;;4.25;2.83;;;;;;;18.90;nan;-24343.28;5084335;28;20178;-77
2022/10/25 08:36:50;;;;;;;4.85;3.20;;;;;;;18.98;nan;-24345.38;5083571;28;20189;-77
2022/10/25 08:39:18;;;;;;;4.85;2.53;;;;;;;19.55;nan;-24361.09;5084774;28;20178;-80
2022/10/25 08:41:49;;;;;;;5.95;2.85;;;;;;;19.78;nan;-24367.34;5083444;28;20177;-77
2022/10/25 08:44:32;;;;;;;4.50;3.00;;;;;;;19.89;nan;-24370.41;5082288;28;20189;-77
2022/10/25 08:47:18;;;;;;;9.65;2.80;;;;;;;20.04;nan;-24374.44;5082762;28;20236;-78
2022/10/25 08:50:21;;;;;;;6.90;2.70;;;;;;;20.31;nan;-24381.94;5083588;28;20192;-80
2022/10/25 08:52:57;;;;;;;6.05;2.72;;;;;;;20.49;nan;-24386.78;5066263;28;20336;-77
2022/10/25 08:55:35;;;;;;;7.55;3.72;;;;;;;20.65;nan;-24391.22;5083157;28;20599;-81
2022/10/25 08:58:12;;;;;;;7.13;2.90;;;;;;;20.99;nan;-24400.53;5084599;28;20231;-80
2022/10/25 09:00:41;;;;;;;7.10;2.97;;;;;;;20.95;nan;-24399.56;5083232;28;20169;-77
2022/10/25 09:03:23;;;;;;;8.13;2.92;;;;;;;20.95;nan;-24399.41;5082743;28;20177;-76
2022/10/25 09:06:10;;;;;;;7.25;2.53;;;;;;;20.99;nan;-24400.53;5080785;28;20261;-77
2022/10/25 09:08:35;;;;;;;6.75;2.75;;;;;;;21.19;nan;-24405.94;5083174;28;20188;-78
2022/10/25 09:11:25;;;;;;;9.65;3.30;;;;;;;21.35;nan;-24410.50;5082002;28;20674;-77
2022/10/25 09:14:15;;;;;;;8.20;2.90;;;;;;;21.25;nan;-24407.59;5082241;28;20189;-79
2022/10/25 09:16:52;;;;;;;9.05;2.58;;;;;;;21.69;nan;-24419.78;5077103;28;20300;-78
2022/10/25 09:19:43;;;;;;;5.97;3.35;;;;;;;21.78;nan;-24422.28;5098509;28;20270;-77
2022/10/25 09:22:25;;;;;;;6.85;3.33;;;;;;;22.09;nan;-24430.59;5081819;28;20651;-78
2022/10/25 09:25:07;;;;;;;6.05;3.10;;;;;;;22.25;nan;-24435.03;5075514;28;20224;-79
2022/10/25 09:27:42;;;;;;;5.15;2.90;;;;;;;22.11;nan;-24431.16;5082858;28;20181;-79
2022/10/25 09:30:10;;;;;;;7.68;2.80;;;;;;;22.40;nan;-24439.19;5081217;28;20692;-76
2022/10/25 09:32:41;;;;;;;9.05;4.07;;;;;;;22.52;nan;-24442.38;5083214;28;20180;-77
2022/10/25 09:35:16;;;;;;;4.60;2.88;;;;;;;22.55;nan;-24443.19;5083616;28;20634;-79
2022/10/25 09:37:48;;;;;;;10.00;3.15;;;;;;;22.36;nan;-24438.22;5081548;28;20185;-77
2022/10/25 09:40:28;;;;;;;3.85;2.60;;;;;;;22.42;nan;-24439.75;5079664;28;20192;-77
2022/10/25 09:43:00;;;;;;;5.47;2.63;;;;;;;22.64;nan;-24445.81;5084104;28;20180;-81
2022/10/25 09:45:49;;;;;;;9.93;3.08;;;;;;;22.44;nan;-24440.44;5086882;28;20214;-76
2022/10/25 09:48:39;;;;;;;8.43;3.15;;;;;;;22.82;nan;-24450.81;5085249;28;20189;-78
2022/10/25 09:51:21;;;;;;;5.57;2.85;;;;;;;22.96;nan;-24454.53;5085442;28;20181;-79
2022/10/25 09:53:47;;;;;;;8.65;3.95;;;;;;;22.83;nan;-24450.94;5085590;28;20329;-77
2022/10/25 09:56:13;;;;;;;10.00;3.05;;;;;;;23.16;nan;-24459.94;5086080;28;20181;-78
2022/10/25 09:58:41;;;;;;;9.30;3.22;;;;;;;23.24;nan;-24462.28;5085729;28;20191;-77
2022/10/25 10:01:26;;;;;;;5.20;2.72;;;;;;;23.28;nan;-24463.38;5078270;28;20621;-79
2022/10/25 10:03:52;;;;;;;5.03;2.95;;;;;;;23.24;nan;-24462.13;5085581;28;20205;-79
2022/10/25 10:06:31;;;;;;;5.53;3.17;;;;;;;23.33;nan;-24464.75;5085347;28;20212;-75
2022/10/25 10:09:06;;;;;;;8.48;3.10;;;;;;;23.23;nan;-24461.84;5085360;28;20660;-77
2022/10/25 10:11:33;;;;;;;5.53;3.03;;;;;;;23.24;nan;-24462.13;5086101;28;20180;-78
2022/10/25 10:14:10;;;;;;;10.82;3.45;;;;;;;23.32;nan;-24464.47;5086256;28;20177;-77
2022/10/25 10:16:43;;;;;;;5.45;3.03;;;;;;;22.89;nan;-24452.72;5086361;28;20790;-79
2022/10/25 10:19:20;;;;;;;5.28;2.42;;;;;;;22.92;nan;-24453.44;5087290;28;20177;-77
2022/10/25 10:22:01;;;;;;;9.25;3.20;;;;;;;23.07;nan;-24457.56;5086856;28;20176;-78
2022/10/25 10:24:31;;;;;;;7.05;3.05;;;;;;;23.19;nan;-24460.75;5083882;28;20185;-77
2022/10/25 10:26:58;;;;;;;8.60;3.55;;;;;;;23.18;nan;-24460.47;5086511;28;20205;-78
2022/10/25 10:29:27;;;;;;;5.38;3.08;;;;;;;23.27;nan;-24462.97;5085094;28;20517;-79
2022/10/25 10:31:56;;;;;;;5.82;2.58;;;;;;;23.16;nan;-24460.06;5086405;28;20343;-79
2022/10/25 10:34:26;;;;;;;6.28;3.15;;;;;;;23.28;nan;-24463.38;5087480;28;20215;-78
2022/10/25 10:37:22;;;;;;;4.85;3.20;;;;;;;23.33;nan;-24464.63;5085241;28;20273;-79
2022/10/25 10:40:06;;;;;;;6.75;3.05;;;;;;;23.17;nan;-24460.34;5087021;28;20203;-67
2022/10/25 10:42:40;;;;;;;6.43;3.20;;;;;;;23.20;nan;-24461.03;5086381;28;20346;-70
2022/10/25 10:45:08;;;;;;;9.80;4.80;;;;;;;23.19;nan;-24460.88;5085385;28;20231;-70
2022/10/25 10:47:48;;;;;;;10.27;4.55;;;;;;;23.04;nan;-24456.75;5086257;28;20248;-67
2022/10/25 10:50:23;;;;;;;7.53;3.80;;;;;;;23.03;nan;-24456.34;5086856;28;20239;-70
2022/10/25 10:52:54;;;;;;;6.00;3.47;;;;;;;22.98;nan;-24454.94;5086314;28;20572;-70
2022/10/25 10:55:22;;;;;;;7.90;3.20;;;;;;;22.68;nan;-24446.94;5085935;28;20173;-69
2022/10/25 10:57:51;;;;;;;8.05;3.38;;;;;;;22.84;nan;-24451.34;5086534;28;20276;-68
2022/10/25 11:00:27;;;;;;;8.98;3.85;;;;;;;22.80;nan;-24450.09;5085744;28;20184;-68
2022/10/25 11:02:53;;;;;;;8.63;4.35;;;;;;;22.71;nan;-24447.75;5086035;28;20203;-69
2022/10/25 11:05:30;;;;;;;5.25;3.58;;;;;;;22.88;nan;-24452.47;5085756;28;20177;-68
2022/10/25 11:08:21;;;;;;;6.63;3.72;;;;;;;23.01;nan;-24455.78;5085101;28;20260;-68
2022/10/25 11:10:46;;;;;;;12.32;4.05;;;;;;;22.77;nan;-24449.41;5082508;28;20229;-70
2022/10/25 11:13:19;;;;;;;15.20;3.80;;;;;;;23.08;nan;-24457.72;5086266;28;20195;-70
2022/10/25 11:16:03;;;;;;;5.25;3.13;;;;;;;23.35;nan;-24465.19;5086194;28;20747;-67
2022/10/25 11:18:40;;;;;;;9.25;4.10;;;;;;;23.43;nan;-24467.25;5086065;28;20189;-68
2022/10/25 11:21:19;;;;;;;5.65;2.85;;;;;;;23.47;nan;-24468.50;5085122;28;20230;-69
2022/10/25 11:23:56;;;;;;;13.10;3.67;;;;;;;23.45;nan;-24467.78;5084433;28;20180;-69
2022/10/25 11:26:40;;;;;;;7.95;3.47;;;;;;;23.56;nan;-24470.84;5085884;28;20397;-67
2022/10/25 11:29:37;;;;;;;10.55;3.80;;;;;;;23.60;nan;-24472.06;5085721;28;20264;-65
2022/10/25 11:32:30;;;;;;;7.50;3.83;;;;;;;23.88;nan;-24479.53;5060060;28;20246;-67
2022/10/25 11:35:07;;;;;;;8.38;3.58;;;;;;;23.96;nan;-24481.88;5085510;28;20201;-69
2022/10/25 11:38:01;;;;;;;9.05;3.65;;;;;;;23.98;nan;-24482.28;5086178;28;20668;-68
2022/10/25 11:40:31;;;;;;;8.40;3.97;;;;;;;23.87;nan;-24479.25;5084933;28;20237;-67
2022/10/25 11:43:35;;;;;;;6.07;3.00;;;;;;;23.89;nan;-24479.81;5085094;28;20213;-69
2022/10/25 11:46:22;;;;;;;4.72;3.03;;;;;;;23.86;nan;-24479.13;5043822;28;20254;-67
2022/10/25 11:49:02;;;;;;;6.70;3.85;;;;;;;24.30;nan;-24490.97;5085155;28;20192;-65
2022/10/25 11:52:00;;;;;;;9.52;3.65;;;;;;;24.23;nan;-24489.06;5083023;28;20181;-69
2022/10/25 11:54:55;;;;;;;5.85;3.28;;;;;;;24.24;nan;-24489.31;5084013;28;20174;-69
2022/10/25 11:57:44;;;;;;;9.50;4.00;;;;;;;24.23;nan;-24489.19;5085462;28;20185;-66